Time,TemperatureF,DewpointF,PressureIn,WindDirection,WindDirectionDegrees,WindSpeedMPH,WindSpeedGustMPH,Humidity,HourlyPrecipIn,Conditions,Clouds,dailyrainin,SoftwareType,DateUTC
2013-04-17 00:02:00,22.0,10.0,30.17,NW,306,0.0,4.0,58,0.00,,,0.00,,2013-04-17 08:02:00,
2013-04-17 00:12:00,22.0,10.0,30.17,NW,306,0.0,4.0,58,0.00,,,0.00,,2013-04-17 08:12:00,
2013-04-17 00:22:00,22.0,10.0,30.17,NW,311,0.0,4.0,58,0.00,,,0.00,,2013-04-17 08:22:00,
2013-04-17 00:32:00,22.0,10.0,30.17,NW,325,0.0,2.0,59,0.00,,,0.00,,2013-04-17 08:32:00,
2013-04-17 00:42:00,22.0,10.0,30.17,NW,325,0.0,2.0,59,0.00,,,0.00,,2013-04-17 08:42:00,
2013-04-17 00:52:00,22.0,10.0,30.17,NNW,329,0.0,4.0,59,0.00,,,0.00,,2013-04-17 08:52:00,
2013-04-17 01:02:00,21.0,9.0,30.17,NNW,331,0.0,2.0,60,0.00,,,0.00,,2013-04-17 09:02:00,
2013-04-17 01:12:00,21.0,9.0,30.17,NNW,331,0.0,2.0,60,0.00,,,0.00,,2013-04-17 09:12:00,
2013-04-17 01:22:00,20.0,9.0,30.17,NW,317,0.0,2.0,61,0.00,,,0.00,,2013-04-17 09:22:00,
2013-04-17 01:32:00,20.0,9.0,30.17,NW,313,0.0,3.0,62,0.00,,,0.00,,2013-04-17 09:32:00,
2013-04-17 01:42:00,20.0,9.0,30.17,NW,313,0.0,3.0,62,0.00,,,0.00,,2013-04-17 09:42:00,
2013-04-17 01:52:00,20.0,9.0,30.17,NW,313,0.0,2.0,63,0.00,,,0.00,,2013-04-17 09:52:00,
2013-04-17 02:02:00,19.0,10.0,30.17,NW,313,0.0,1.0,66,0.00,,,0.00,,2013-04-17 10:02:00,
2013-04-17 02:12:00,19.0,10.0,30.17,NW,313,0.0,1.0,66,0.00,,,0.00,,2013-04-17 10:12:00,
2013-04-17 02:23:00,17.0,9.0,30.17,NW,313,0.0,1.0,69,0.00,,,0.00,,2013-04-17 10:23:00,
2013-04-17 02:32:00,15.0,7.0,30.18,NW,313,0.0,0.0,71,0.00,,,0.00,,2013-04-17 10:32:00,
2013-04-17 02:42:00,15.0,7.0,30.18,NW,313,0.0,0.0,71,0.00,,,0.00,,2013-04-17 10:42:00,
2013-04-17 02:52:00,15.0,8.0,30.18,NW,312,0.0,2.0,72,0.00,,,0.00,,2013-04-17 10:52:00,
2013-04-17 03:02:00,15.0,8.0,30.18,NW,311,0.0,1.0,73,0.00,,,0.00,,2013-04-17 11:02:00,
2013-04-17 03:11:00,15.0,8.0,30.18,NW,311,0.0,1.0,73,0.00,,,0.00,,2013-04-17 11:11:00,
2013-04-17 03:22:00,14.0,7.0,30.18,NW,311,0.0,0.0,74,0.00,,,0.00,,2013-04-17 11:22:00,
2013-04-17 03:32:00,15.0,8.0,30.19,NW,312,0.0,1.0,73,0.00,,,0.00,,2013-04-17 11:32:00,
2013-04-17 03:42:00,15.0,8.0,30.19,NW,312,0.0,1.0,73,0.00,,,0.00,,2013-04-17 11:42:00,
2013-04-17 03:52:00,14.0,7.0,30.19,NW,312,0.0,1.0,74,0.00,,,0.00,,2013-04-17 11:52:00,
2013-04-17 04:02:00,14.0,7.0,30.19,NW,311,0.0,1.0,74,0.00,,,0.00,,2013-04-17 12:02:00,
2013-04-17 04:12:00,14.0,7.0,30.19,NW,311,0.0,1.0,74,0.00,,,0.00,,2013-04-17 12:12:00,
2013-04-17 04:22:00,13.0,7.0,30.18,NW,312,0.0,1.0,76,0.00,,,0.00,,2013-04-17 12:22:00,
2013-04-17 04:32:00,12.0,6.0,30.18,NW,312,0.0,1.0,77,0.00,,,0.00,,2013-04-17 12:32:00,
2013-04-17 04:42:00,12.0,6.0,30.18,NW,312,0.0,1.0,77,0.00,,,0.00,,2013-04-17 12:42:00,
2013-04-17 04:52:00,12.0,6.0,30.18,NW,312,0.0,1.0,77,0.00,,,0.00,,2013-04-17 12:52:00,
2013-04-17 05:02:00,12.0,6.0,30.18,NW,312,0.0,1.0,78,0.00,,,0.00,,2013-04-17 13:02:00,
2013-04-17 05:12:00,12.0,6.0,30.18,NW,312,0.0,1.0,78,0.00,,,0.00,,2013-04-17 13:12:00,
2013-04-17 05:22:00,13.0,7.0,30.18,NW,311,0.0,1.0,78,0.00,,,0.00,,2013-04-17 13:22:00,
2013-04-17 05:32:00,12.0,6.0,30.18,NW,312,0.0,1.0,78,0.00,,,0.00,,2013-04-17 13:32:00,
2013-04-17 05:42:00,12.0,6.0,30.18,NW,312,0.0,1.0,78,0.00,,,0.00,,2013-04-17 13:42:00,
2013-04-17 05:52:00,11.0,6.0,30.18,NW,311,0.0,1.0,78,0.00,,,0.00,,2013-04-17 13:52:00,
2013-04-17 06:02:00,11.0,6.0,30.18,NW,312,0.0,1.0,79,0.00,,,0.00,,2013-04-17 14:02:00,
2013-04-17 06:11:00,11.0,6.0,30.18,NW,312,0.0,1.0,79,0.00,,,0.00,,2013-04-17 14:11:00,
2013-04-17 06:22:00,10.0,5.0,30.18,NW,311,0.0,1.0,80,0.00,,,0.00,,2013-04-17 14:22:00,
2013-04-17 06:32:00,10.0,5.0,30.18,NW,312,0.0,2.0,78,0.00,,,0.00,,2013-04-17 14:32:00,
2013-04-17 06:42:00,10.0,5.0,30.19,NW,312,0.0,0.0,80,0.00,,,0.00,,2013-04-17 14:42:00,
2013-04-17 06:52:00,10.0,5.0,30.19,NW,312,0.0,0.0,80,0.00,,,0.00,,2013-04-17 14:52:00,
2013-04-17 07:02:00,10.0,5.0,30.19,NW,312,0.0,0.0,80,0.00,,,0.00,,2013-04-17 15:02:00,
2013-04-17 07:12:00,10.0,5.0,30.18,NW,311,0.0,1.0,79,0.00,,,0.00,,2013-04-17 15:12:00,
2013-04-17 07:22:00,10.0,5.0,30.18,NW,311,0.0,1.0,79,0.00,,,0.00,,2013-04-17 15:22:00,
2013-04-17 07:33:00,11.0,6.0,30.18,NW,312,0.0,1.0,78,0.00,,,0.00,,2013-04-17 15:33:00,
2013-04-17 07:42:00,11.0,6.0,30.18,NW,312,0.0,1.0,78,0.00,,,0.00,,2013-04-17 15:42:00,
2013-04-17 07:52:00,11.0,6.0,30.19,NW,312,0.0,2.0,78,0.00,,,0.00,,2013-04-17 15:52:00,
2013-04-17 08:03:00,12.0,6.0,30.19,NW,311,0.0,1.0,76,0.00,,,0.00,,2013-04-17 16:03:00,
2013-04-17 08:12:00,12.0,6.0,30.19,NW,311,0.0,1.0,76,0.00,,,0.00,,2013-04-17 16:12:00,
2013-04-17 08:22:00,12.0,6.0,30.19,NW,311,0.0,1.0,76,0.00,,,0.00,,2013-04-17 16:22:00,
2013-04-17 08:32:00,14.0,7.0,30.19,NW,307,0.0,2.0,74,0.00,,,0.00,,2013-04-17 16:32:00,
2013-04-17 08:42:00,14.0,7.0,30.19,NW,307,0.0,2.0,74,0.00,,,0.00,,2013-04-17 16:42:00,
2013-04-17 08:52:00,14.0,7.0,30.19,NW,307,0.0,1.0,73,0.00,,,0.00,,2013-04-17 16:52:00,
2013-04-17 09:02:00,14.0,7.0,30.19,NW,307,0.0,1.0,73,0.00,,,0.00,,2013-04-17 17:02:00,
2013-04-17 09:12:00,14.0,7.0,30.19,NW,307,0.0,1.0,73,0.00,,,0.00,,2013-04-17 17:12:00,
2013-04-17 09:22:00,19.0,10.0,30.19,WNW,298,0.0,2.0,66,0.00,,,0.00,,2013-04-17 17:22:00,
2013-04-17 09:33:00,21.0,10.0,30.20,WNW,298,0.0,4.0,61,0.00,,,0.00,,2013-04-17 17:33:00,
2013-04-17 09:42:00,21.0,10.0,30.20,WNW,298,0.0,4.0,61,0.00,,,0.00,,2013-04-17 17:42:00,
2013-04-17 09:51:00,21.0,10.0,30.20,WNW,298,0.0,4.0,61,0.00,,,0.00,,2013-04-17 17:51:00,
2013-04-17 10:02:00,24.0,10.0,30.20,West,279,0.0,4.0,55,0.00,,,0.00,,2013-04-17 18:02:00,
2013-04-17 10:12:00,24.0,10.0,30.20,West,279,0.0,4.0,55,0.00,,,0.00,,2013-04-17 18:12:00,
2013-04-17 10:22:00,25.0,10.0,30.20,WNW,282,0.0,8.0,53,0.00,,,0.00,,2013-04-17 18:22:00,
2013-04-17 10:32:00,25.0,10.0,30.19,West,264,2.0,6.0,52,0.00,,,0.00,,2013-04-17 18:32:00,
2013-04-17 10:42:00,25.0,10.0,30.19,West,264,2.0,6.0,52,0.00,,,0.00,,2013-04-17 18:42:00,
2013-04-17 10:52:00,25.0,10.0,30.19,WNW,300,2.0,8.0,53,0.00,,,0.00,,2013-04-17 18:52:00,
2013-04-17 11:02:00,25.0,10.0,30.19,WNW,300,2.0,8.0,53,0.00,,,0.00,,2013-04-17 19:02:00,
2013-04-17 11:12:00,25.0,10.0,30.19,WNW,300,2.0,8.0,53,0.00,,,0.00,,2013-04-17 19:12:00,
2013-04-17 11:22:00,26.0,11.0,30.20,West,280,1.0,6.0,52,0.00,,,0.00,,2013-04-17 19:22:00,
2013-04-17 11:32:00,27.0,10.0,30.20,WNW,291,2.0,6.0,49,0.00,,,0.00,,2013-04-17 19:32:00,
2013-04-17 11:42:00,27.0,10.0,30.20,WNW,291,2.0,6.0,49,0.00,,,0.00,,2013-04-17 19:42:00,
2013-04-17 11:52:00,27.0,11.0,30.20,WNW,291,1.0,6.0,50,0.00,,,0.00,,2013-04-17 19:52:00,
2013-04-17 12:02:00,27.0,11.0,30.20,WNW,291,1.0,6.0,50,0.00,,,0.00,,2013-04-17 20:02:00,
2013-04-17 12:12:00,27.0,11.0,30.20,WNW,291,1.0,6.0,50,0.00,,,0.00,,2013-04-17 20:12:00,
2013-04-17 12:22:00,27.0,10.0,30.20,West,263,3.0,8.0,49,0.01,,,0.01,,2013-04-17 20:22:00,
2013-04-17 12:32:00,29.0,12.0,30.20,WNW,297,2.0,6.0,49,0.01,,,0.01,,2013-04-17 20:32:00,
2013-04-17 12:42:00,29.0,12.0,30.20,WNW,297,2.0,6.0,49,0.01,,,0.01,,2013-04-17 20:42:00,
2013-04-17 12:52:00,29.0,12.0,30.20,WNW,297,2.0,6.0,49,0.01,,,0.01,,2013-04-17 20:52:00,
2013-04-17 13:02:00,29.0,11.0,30.21,West,271,3.0,10.0,46,0.00,,,0.01,,2013-04-17 21:02:00,
2013-04-17 13:12:00,29.0,11.0,30.21,West,271,3.0,10.0,46,0.00,,,0.01,,2013-04-17 21:12:00,
2013-04-17 13:22:00,29.0,11.0,30.21,North,10,2.0,7.0,46,0.00,,,0.01,,2013-04-17 21:22:00,
2013-04-17 13:32:00,30.0,11.0,30.21,NNW,336,3.0,7.0,45,0.00,,,0.01,,2013-04-17 21:32:00,
2013-04-17 13:42:00,30.0,11.0,30.21,NNW,336,3.0,7.0,45,0.00,,,0.01,,2013-04-17 21:42:00,
2013-04-17 13:53:00,30.0,11.0,30.22,North,360,1.0,6.0,45,0.00,,,0.01,,2013-04-17 21:53:00,
2013-04-17 14:02:00,29.0,10.0,30.22,NNW,327,3.0,7.0,44,0.00,,,0.01,,2013-04-17 22:02:00,
2013-04-17 14:12:00,29.0,10.0,30.22,NNW,327,3.0,7.0,44,0.00,,,0.01,,2013-04-17 22:12:00,
2013-04-17 14:22:00,29.0,11.0,30.22,NW,323,3.0,11.0,46,0.00,,,0.01,,2013-04-17 22:22:00,
2013-04-17 14:33:00,29.0,10.0,30.23,WNW,292,5.0,13.0,44,0.00,,,0.01,,2013-04-17 22:33:00,
2013-04-17 14:42:00,29.0,10.0,30.23,WNW,292,5.0,13.0,44,0.00,,,0.01,,2013-04-17 22:42:00,
2013-04-17 14:52:00,30.0,10.0,30.23,West,271,3.0,12.0,43,0.00,,,0.01,,2013-04-17 22:52:00,
2013-04-17 15:02:00,29.0,10.0,30.23,NNW,331,3.0,9.0,44,0.00,,,0.01,,2013-04-17 23:02:00,
2013-04-17 15:12:00,29.0,10.0,30.23,NNW,331,3.0,9.0,44,0.00,,,0.01,,2013-04-17 23:12:00,
2013-04-17 15:22:00,29.0,9.0,30.23,WNW,294,4.0,10.0,43,0.00,,,0.01,,2013-04-17 23:22:00,
2013-04-17 15:32:00,30.0,10.0,30.23,WNW,298,3.0,11.0,43,0.00,,,0.01,,2013-04-17 23:32:00,
2013-04-17 15:42:00,30.0,10.0,30.23,WNW,298,3.0,11.0,43,0.00,,,0.01,,2013-04-17 23:42:00,
2013-04-17 15:52:00,29.0,9.0,30.23,NW,313,4.0,11.0,43,0.00,,,0.01,,2013-04-17 23:52:00,
2013-04-17 16:02:00,30.0,10.0,30.24,WNW,301,2.0,11.0,43,0.00,,,0.01,,2013-04-18 00:02:00,
2013-04-17 16:12:00,30.0,10.0,30.24,WNW,301,2.0,11.0,43,0.00,,,0.01,,2013-04-18 00:12:00,
2013-04-17 16:22:00,29.0,9.0,30.24,NNE,21,5.0,12.0,43,0.00,,,0.01,,2013-04-18 00:22:00,
2013-04-17 16:32:00,28.0,8.0,30.24,WNW,292,5.0,15.0,43,0.00,,,0.01,,2013-04-18 00:32:00,
2013-04-17 16:42:00,28.0,8.0,30.24,WNW,292,5.0,15.0,43,0.00,,,0.01,,2013-04-18 00:42:00,
2013-04-17 16:52:00,28.0,9.0,30.24,NW,325,4.0,12.0,44,0.00,,,0.01,,2013-04-18 00:52:00,
2013-04-17 17:02:00,28.0,9.0,30.25,WNW,300,4.0,15.0,44,0.00,,,0.01,,2013-04-18 01:02:00,
2013-04-17 17:12:00,28.0,10.0,30.25,NW,321,2.0,9.0,46,0.00,,,0.01,,2013-04-18 01:12:00,
2013-04-17 17:22:00,28.0,10.0,30.25,NW,321,2.0,9.0,46,0.00,,,0.01,,2013-04-18 01:22:00,
2013-04-17 17:32:00,28.0,10.0,30.25,NNW,329,3.0,9.0,46,0.00,,,0.01,,2013-04-18 01:32:00,
2013-04-17 17:42:00,28.0,10.0,30.25,NNW,329,3.0,9.0,46,0.00,,,0.01,,2013-04-18 01:42:00,
2013-04-17 17:52:00,28.0,10.0,30.25,NNW,329,3.0,9.0,46,0.00,,,0.01,,2013-04-18 01:52:00,
2013-04-17 18:02:00,28.0,9.0,30.25,NW,317,1.0,14.0,45,0.00,,,0.01,,2013-04-18 02:02:00,
2013-04-17 18:12:00,28.0,9.0,30.25,NW,317,1.0,14.0,45,0.00,,,0.01,,2013-04-18 02:12:00,
2013-04-17 18:22:00,29.0,10.0,30.25,NW,313,2.0,9.0,45,0.00,,,0.01,,2013-04-18 02:22:00,
2013-04-17 18:32:00,28.0,9.0,30.25,West,268,5.0,10.0,45,0.00,,,0.01,,2013-04-18 02:32:00,
2013-04-17 18:42:00,28.0,9.0,30.25,West,268,5.0,10.0,45,0.00,,,0.01,,2013-04-18 02:42:00,
2013-04-17 18:51:00,28.0,9.0,30.25,West,268,5.0,10.0,45,0.00,,,0.01,,2013-04-18 02:51:00,
2013-04-17 19:02:00,28.0,11.0,30.25,NW,326,2.0,7.0,48,0.00,,,0.01,,2013-04-18 03:02:00,
2013-04-17 19:12:00,28.0,10.0,30.25,NNW,330,2.0,11.0,47,0.00,,,0.01,,2013-04-18 03:12:00,
2013-04-17 19:22:00,28.0,10.0,30.25,NNW,330,2.0,11.0,47,0.00,,,0.01,,2013-04-18 03:22:00,
2013-04-17 19:33:00,28.0,11.0,30.25,WNW,300,1.0,7.0,49,0.00,,,0.01,,2013-04-18 03:33:00,
2013-04-17 19:43:00,28.0,11.0,30.26,WNW,288,3.0,8.0,48,0.00,,,0.01,,2013-04-18 03:43:00,
2013-04-17 19:53:00,28.0,11.0,30.26,WNW,288,3.0,8.0,48,0.00,,,0.01,,2013-04-18 03:53:00,
2013-04-17 20:03:00,28.0,11.0,30.26,WNW,283,0.0,7.0,49,0.00,,,0.01,,2013-04-18 04:03:00,
2013-04-17 20:13:00,28.0,11.0,30.26,WNW,283,0.0,7.0,49,0.00,,,0.01,,2013-04-18 04:13:00,
2013-04-17 20:23:00,28.0,11.0,30.26,WNW,299,0.0,5.0,48,0.00,,,0.01,,2013-04-18 04:23:00,
2013-04-17 20:32:00,28.0,11.0,30.27,NNW,327,0.0,3.0,48,0.00,,,0.01,,2013-04-18 04:32:00,
2013-04-17 20:43:00,28.0,11.0,30.27,WNW,283,0.0,2.0,48,0.00,,,0.01,,2013-04-18 04:43:00,
2013-04-17 20:52:00,28.0,11.0,30.27,WNW,283,0.0,2.0,48,0.00,,,0.01,,2013-04-18 04:52:00,
2013-04-17 21:02:00,27.0,11.0,30.27,WNW,286,0.0,2.0,50,0.00,,,0.01,,2013-04-18 05:02:00,
2013-04-17 21:12:00,27.0,11.0,30.27,WNW,286,0.0,2.0,50,0.00,,,0.01,,2013-04-18 05:12:00,
2013-04-17 21:22:00,27.0,11.0,30.28,West,279,0.0,2.0,51,0.00,,,0.01,,2013-04-18 05:22:00,
2013-04-17 21:32:00,26.0,11.0,30.28,West,279,0.0,1.0,52,0.00,,,0.01,,2013-04-18 05:32:00,
2013-04-17 21:42:00,26.0,10.0,30.28,West,279,0.0,2.0,50,0.00,,,0.01,,2013-04-18 05:42:00,
2013-04-17 21:52:00,26.0,10.0,30.28,West,279,0.0,2.0,50,0.00,,,0.01,,2013-04-18 05:52:00,
2013-04-17 22:02:00,25.0,10.0,30.28,West,275,0.0,3.0,53,0.00,,,0.01,,2013-04-18 06:02:00,
2013-04-17 22:12:00,25.0,10.0,30.28,West,275,0.0,3.0,53,0.00,,,0.01,,2013-04-18 06:12:00,
2013-04-17 22:22:00,24.0,11.0,30.29,West,275,0.0,1.0,57,0.00,,,0.01,,2013-04-18 06:22:00,
2013-04-17 22:32:00,23.0,11.0,30.29,West,275,0.0,1.0,59,0.00,,,0.01,,2013-04-18 06:32:00,
2013-04-17 22:42:00,23.0,11.0,30.29,West,275,0.0,1.0,59,0.00,,,0.01,,2013-04-18 06:42:00,
2013-04-17 22:52:00,22.0,10.0,30.29,West,275,0.0,0.0,58,0.00,,,0.01,,2013-04-18 06:52:00,
2013-04-17 23:02:00,21.0,8.0,30.29,West,275,0.0,1.0,57,0.00,,,0.01,,2013-04-18 07:02:00,
2013-04-17 23:11:00,21.0,9.0,30.29,West,275,0.0,1.0,60,0.00,,,0.01,,2013-04-18 07:11:00,
2013-04-17 23:22:00,21.0,9.0,30.29,West,275,0.0,1.0,60,0.00,,,0.01,,2013-04-18 07:22:00,
2013-04-17 23:32:00,21.0,9.0,30.29,West,275,0.0,1.0,58,0.00,,,0.01,,2013-04-18 07:32:00,
2013-04-17 23:42:00,20.0,8.0,30.29,West,275,0.0,0.0,59,0.00,,,0.01,,2013-04-18 07:42:00,
2013-04-17 23:52:00,20.0,8.0,30.29,West,275,0.0,0.0,59,0.00,,,0.01,,2013-04-18 07:52:00,